Pagrindinis puslapis
METAR-TAF:

METAR-TAF

Oro uostai :

Tongatapu, Tonga

platuma: 21-14S, ilguma: 175-09W, Aukštis: 38 m

Dabartinis oras

Ataskaita buvo paskelbta 33 minutes, ne 03:00 UTC
Vėjas 13 kt iš Pietryčių
Temperatūra 23°C
Drėgmė 61%
Slėgis 1019 hPa
Matomumas 10 km arba daugiau
Mažai debesys ne aukštis 1700 ft

METAR: NFTF 170300Z 14013KT 9999 FEW017 23/15 Q1019 RMK DRY AIR 59?

Laikas: 16:33 (03:33 UTC)

Prognozė

Ataskaita buvo paskelbta 2 valandos ir 7 minutes, ne 01:26 UTC
Prognozė galioja nuo 17 metu 01 UTC su 17 metu 24 UTC
Vėjas 14 kt iš Pietų/Pietryčių
Matomumas 10 km arba daugiau
Mažai debesys ne aukštis 1500 ft
Išsisklaidę debesys ne aukštis 4000 ft
Laikinai
nuo 17 metu 01 UTC su 17 metu 12 UTC
Vėjas 15 kt iš Pietų/Pietryčių su gūsio iki 28 kt

TAF: NFTF 170126Z 1701/1724 15014KT 9999 FEW015 SCT040 TEMPO 1701/1712 15015G28KT

Orai ataskaitas ir orų prognozės (METAR, TAF).

turimą stotys yra geltonos ir raudonos taškus žemėlapyje.

Perkelti pele per norėdami pamatyti stoties vardą.

Tada spustelėkite, norėdami matyti oro stebėjimo ir prognozės.

Norėdami pakeisti žemėlapį: spustelėkite ant žalios mygtukų su juodo kryžiaus žemyn,; žalią mygtuką su brūkšneliu, jei norite nutolinti; arba žalių rodyklių gretimoms žemėlapius.


METAR-TAF: